Decoded Metar for YPWR (WOOMERA in AUSTRALIA) (IATA:UMR) | Meteo·Mobile Aviation Weather
aviador You're here:

YPWR Decoded Metar

WOOMERA in AUSTRALIA
Report Time2018-11-21 18:30:00
UTC Time2018-11-21 18:59:21
Flight Rules vfr VFR
Wind250° at 10 kt
W.Decomp.*RWY 30: 5.7 kt HW 8.2 kt LCW
RWY 18: 4.2 kt HW 9.1 kt RCW
W.Rank250° ranks 19
Current wind is below 250° avg. (10.7)
Visibility9999 m
Phenomena:N/A
Clouds:N/A
Expected CloudBase > 2,000 ft AGL from Temp-Dew spread
CeilingNone
Temp10°C (ISA -4)
Dew Point05°C (71% RH)
AAT5.3°C
QNH1011 hPa
Density Alt269 ft
Elevation548 ft
Report Wrong Elevation
Raw Report
METAR YPWR 211830Z AUTO 25010KT 9999 // NCD 10/05 Q1011
RF00.0/000.0=

Extra information for YPWR:More info

Metar Taf Metar & Taf Last 4 Metars F.Rules Stats Wind Profile Meteogram Temp Stats Airport Information Weather charts Add Link Nearby VenuesMetar ALERT Operation Metar Decoded Social comments